createdAt,value
2023-04-03T05:15:17.576Z,100388.02
2023-04-03T05:17:48.512Z,100391.29
2023-04-03T05:20:16.701Z,100398.71
2023-04-03T05:22:47.980Z,100397.83
2023-04-03T05:25:35.908Z,100397.85
2023-04-03T06:30:57.608Z,100410.23
2023-04-03T06:33:27.008Z,100416.13
2023-04-03T06:36:00.246Z,100417.10
2023-04-03T06:38:32.960Z,100416.48
2023-04-03T06:41:00.662Z,100418.80
2023-04-03T06:43:27.905Z,100423.73
2023-04-03T06:46:15.765Z,100414.06
2023-04-03T06:48:43.221Z,100418.90
2023-04-03T06:51:31.195Z,100420.58
2023-04-03T06:54:03.540Z,100412.79
2023-04-03T06:57:08.909Z,100427.07
2023-04-03T06:59:41.046Z,100428.76
2023-04-03T07:02:13.624Z,100434.66
2023-04-03T07:04:42.447Z,100427.69
2023-04-03T07:07:09.762Z,100428.48
2023-04-03T07:09:37.203Z,100428.98
2023-04-03T07:12:08.095Z,100427.27
2023-04-03T07:14:35.231Z,100430.17
2023-04-03T07:17:02.283Z,100426.84
2023-04-03T07:19:29.310Z,100416.81
2023-04-03T07:21:56.478Z,100422.01
2023-04-03T07:24:23.994Z,100416.73
2023-04-03T07:26:53.149Z,100412.00
2023-04-03T07:29:21.824Z,100404.04
2023-04-03T07:31:49.889Z,100403.33
2023-04-03T07:34:16.687Z,100403.66
2023-04-03T07:36:43.707Z,100403.65
2023-04-03T07:39:11.746Z,100407.88
2023-04-03T07:41:38.842Z,100410.04
2023-04-03T07:44:22.784Z,100408.65
2023-04-03T07:46:50.946Z,100409.27
2023-04-03T07:49:48.770Z,100405.38
2023-04-03T07:52:16.511Z,100409.08
2023-04-03T07:54:52.947Z,100411.45
2023-04-03T07:57:46.436Z,100413.39
2023-04-03T08:02:43.990Z,100411.27
2023-04-03T08:04:57.187Z,100411.65
2023-04-03T08:07:24.820Z,100415.54
2023-04-03T08:09:52.085Z,100417.12
2023-04-03T08:12:19.005Z,100416.63
2023-04-03T08:14:46.258Z,100413.23
2023-04-03T08:17:37.040Z,100413.15
2023-04-03T08:32:27.379Z,100423.94
2023-04-03T08:34:54.475Z,100424.32
2023-04-03T08:37:22.631Z,100432.21
2023-04-03T08:39:50.670Z,100436.52
2023-04-03T08:42:43.374Z,100434.11
2023-04-03T09:06:27.028Z,100439.31
2023-04-03T09:39:21.395Z,100450.02
2023-04-03T09:49:33.218Z,100453.16
2023-04-03T09:52:23.693Z,100455.58
2023-04-03T09:54:54.171Z,100460.73
2023-04-03T09:57:52.274Z,100463.45
2023-04-03T10:04:17.305Z,100458.60
2023-04-03T10:06:55.397Z,100463.10
2023-04-03T10:16:28.703Z,100455.02
2023-04-03T10:29:44.708Z,100450.77
2023-04-03T10:32:50.130Z,100449.73
2023-04-03T10:35:49.161Z,100459.45
2023-04-03T10:38:35.898Z,100457.01
2023-04-03T10:42:23.191Z,100459.42
2023-04-03T10:52:40.822Z,100443.80
2023-04-03T11:02:30.999Z,100439.60
2023-04-03T11:05:31.388Z,100433.16
2023-04-03T11:08:05.570Z,100426.76
2023-04-03T11:10:40.216Z,100424.73
2023-04-03T11:13:45.348Z,100426.96
2023-04-03T11:16:57.675Z,100423.09
2023-04-03T11:20:35.329Z,100424.15
2023-04-03T11:23:49.666Z,100418.57
2023-04-03T11:26:25.774Z,100427.20
2023-04-03T11:29:34.277Z,100439.86
2023-04-03T11:32:30.000Z,100417.14
2023-04-03T11:35:00.052Z,100408.48
2023-04-03T11:37:39.792Z,100411.69
2023-04-03T11:43:26.506Z,100406.44
2023-04-03T11:46:06.240Z,100397.52
2023-04-03T11:48:56.779Z,100411.14
2023-04-03T11:51:29.746Z,100411.89
2023-04-03T11:54:44.791Z,100409.55
2023-04-03T11:58:02.345Z,100400.44
2023-04-03T12:00:45.151Z,100408.79
2023-04-03T12:03:27.032Z,100402.73
2023-04-03T12:06:46.823Z,100407.00
2023-04-03T12:09:37.560Z,100411.93
2023-04-03T12:12:26.577Z,100407.89
2023-04-03T12:15:19.483Z,100417.02
2023-04-03T12:17:47.454Z,100411.52
2023-04-03T12:20:51.877Z,100405.80
2023-04-03T12:23:36.632Z,100414.84
2023-04-03T12:26:05.312Z,100419.70
2023-04-03T12:28:39.396Z,100414.95
2023-04-03T12:31:11.872Z,100409.96
2023-04-03T12:34:14.457Z,100414.02
2023-04-03T12:37:01.597Z,100411.31
2023-04-03T12:39:41.819Z,100412.02
2023-04-03T12:42:42.453Z,100405.67
2023-04-03T12:45:22.289Z,100406.64
2023-04-03T12:47:51.741Z,100411.67
2023-04-03T12:50:34.531Z,100407.06
2023-04-03T12:53:04.931Z,100408.54
2023-04-03T12:55:38.828Z,100405.23
2023-04-03T12:58:27.493Z,100413.70
2023-04-03T13:01:19.342Z,100419.30
2023-04-03T13:03:50.788Z,100416.35
2023-04-03T13:06:28.126Z,100418.60
2023-04-03T13:57:25.392Z,100418.65
2023-04-03T13:59:52.579Z,100424.09
2023-04-03T14:02:53.410Z,100417.13
2023-04-03T14:06:01.530Z,100414.50
2023-04-03T14:08:39.640Z,100413.52
2023-04-03T14:22:25.765Z,100415.46
2023-04-03T14:24:56.695Z,100414.65
2023-04-03T14:27:29.800Z,100413.91
2023-04-03T14:29:58.574Z,100414.26
2023-04-03T14:32:29.004Z,100414.02
2023-04-03T14:34:59.159Z,100409.29
2023-04-03T14:37:34.073Z,100411.38
2023-04-03T14:40:08.625Z,100406.77
2023-04-03T14:42:41.257Z,100413.56
2023-04-03T14:45:11.525Z,100415.52
2023-04-03T14:47:47.952Z,100412.06
2023-04-03T14:50:18.605Z,100406.96
2023-04-03T14:52:48.201Z,100411.45
2023-04-03T14:55:17.786Z,100407.33
2023-04-03T14:57:44.559Z,100412.70
2023-04-03T15:00:58.420Z,100413.48
2023-04-03T15:03:47.521Z,100411.70
2023-04-03T15:06:15.498Z,100409.13
2023-04-03T15:08:44.367Z,100404.23
2023-04-03T15:11:16.913Z,100404.81
2023-04-03T15:13:44.759Z,100407.30
2023-04-03T15:16:18.247Z,100406.11
2023-04-03T15:18:46.624Z,100407.34
2023-04-03T15:21:14.014Z,100405.79
2023-04-03T15:23:42.361Z,100405.76
2023-04-03T15:26:11.248Z,100407.94
2023-04-03T15:29:01.528Z,100405.88
2023-04-03T15:45:47.027Z,100407.42
2023-04-03T15:48:36.272Z,100409.81
2023-04-03T15:51:03.341Z,100404.20
2023-04-03T15:53:30.265Z,100403.70
2023-04-03T15:55:57.112Z,100401.35
2023-04-03T15:58:28.207Z,100403.30
2023-04-03T16:00:55.388Z,100403.37
2023-04-03T16:03:26.799Z,100400.75
2023-04-03T16:05:54.862Z,100392.25
2023-04-03T16:08:21.715Z,100394.48
2023-04-03T16:10:48.847Z,100397.15
2023-04-03T16:13:20.814Z,100399.13
2023-04-03T16:16:07.121Z,100400.34
2023-04-03T16:18:42.616Z,100405.05
2023-04-03T16:21:30.264Z,100408.36
2023-04-03T17:25:40.373Z,100426.45
2023-04-03T17:28:11.810Z,100429.27
2023-04-03T17:30:41.469Z,100429.23
2023-04-03T17:52:59.507Z,100452.05
2023-04-03T17:56:18.571Z,100453.05
2023-04-03T18:44:41.878Z,100499.32
2023-04-03T18:47:12.495Z,100498.41
2023-04-03T18:49:42.565Z,100497.52
2023-04-03T18:52:10.976Z,100496.35
2023-04-03T18:54:38.341Z,100500.36
2023-04-03T18:57:05.462Z,100500.66
2023-04-03T18:59:35.190Z,100499.00
2023-04-03T19:02:04.753Z,100499.98
2023-04-03T19:04:34.380Z,100502.92
2023-04-03T19:07:04.857Z,100500.06
2023-04-03T19:09:32.895Z,100502.32
2023-04-03T19:12:01.445Z,100507.34
2023-04-03T19:14:28.665Z,100505.61
2023-04-03T19:16:56.065Z,100510.92
2023-04-03T19:19:23.050Z,100505.27
2023-04-03T19:21:50.379Z,100508.84
2023-04-03T19:24:17.972Z,100513.22
2023-04-03T19:26:45.477Z,100513.74
2023-04-03T19:29:12.938Z,100517.82
2023-04-03T19:31:39.994Z,100518.66
2023-04-03T19:34:10.205Z,100516.95
2023-04-03T19:36:38.601Z,100517.44
2023-04-03T19:39:05.583Z,100516.45
2023-04-03T19:41:36.494Z,100523.40
2023-04-03T19:44:06.544Z,100513.99
2023-04-03T19:46:34.718Z,100513.48
2023-04-03T19:49:01.948Z,100516.69
2023-04-03T19:51:30.420Z,100515.79
2023-04-03T19:53:57.696Z,100517.55
2023-04-03T19:56:33.214Z,100516.04
2023-04-03T19:59:16.988Z,100520.42
2023-04-03T20:01:46.016Z,100522.14
2023-04-03T20:04:12.980Z,100524.69
2023-04-03T20:06:42.214Z,100523.55
2023-04-03T20:09:09.321Z,100525.23
2023-04-03T20:11:37.335Z,100523.84
2023-04-03T20:14:04.269Z,100524.36
2023-04-03T20:16:31.298Z,100528.82
2023-04-03T20:19:22.010Z,100525.99
2023-04-03T20:22:44.982Z,100526.66
2023-04-03T20:26:29.771Z,100534.58
2023-04-03T20:29:38.582Z,100535.45
2023-04-03T20:32:15.772Z,100533.63
2023-04-03T20:35:17.035Z,100534.20
2023-04-03T20:37:46.399Z,100541.02
2023-04-03T21:43:29.194Z,100562.48
2023-04-03T22:40:20.816Z,100569.68
2023-04-03T22:42:49.107Z,100567.05
2023-04-03T22:45:16.231Z,100573.91
2023-04-03T22:47:43.751Z,100577.37
2023-04-03T22:50:10.899Z,100582.38
2023-04-03T22:52:37.893Z,100588.45
2023-04-03T22:55:18.304Z,100586.75
2023-04-03T22:57:48.988Z,100587.84
2023-04-03T23:00:16.384Z,100588.96
2023-04-03T23:02:43.424Z,100587.08
2023-04-03T23:05:11.054Z,100592.34
2023-04-03T23:07:38.111Z,100605.88
2023-04-03T23:10:05.872Z,100599.05
2023-04-03T23:26:34.114Z,100583.11
2023-04-03T23:29:01.685Z,100586.45
2023-04-03T23:31:28.903Z,100593.07
2023-04-03T23:33:55.886Z,100594.73
2023-04-03T23:36:22.900Z,100589.34
2023-04-03T23:38:51.374Z,100583.36
2023-04-03T23:41:43.278Z,100580.80
2023-04-03T23:44:31.826Z,100574.20
2023-04-03T23:46:59.012Z,100570.48
2023-04-03T23:49:39.838Z,100572.14
2023-04-03T23:52:06.852Z,100567.55
2023-04-03T23:54:33.855Z,100563.17
2023-04-03T23:57:00.803Z,100558.31
2023-04-03T23:59:30.200Z,100561.43
